createdAt,value
2022-12-01T00:01:15.048Z,45.80
2022-12-01T00:03:41.912Z,56.10
2022-12-01T00:06:17.937Z,46.72
2022-12-01T00:09:06.520Z,49.80
2022-12-01T00:11:34.946Z,54.30
2022-12-01T00:14:01.872Z,49.50
2022-12-01T00:16:30.805Z,50.00
2022-12-01T00:18:57.827Z,47.00
2022-12-01T00:21:25.876Z,53.83
2022-12-01T00:23:54.587Z,56.15
2022-12-01T00:26:22.327Z,48.17
2022-12-01T00:28:54.334Z,49.45
2022-12-01T00:31:21.924Z,55.22
2022-12-01T00:33:48.805Z,56.20
2022-12-01T00:36:15.830Z,51.30
2022-12-01T00:38:42.721Z,51.10
2022-12-01T00:41:09.800Z,53.90
2022-12-01T00:43:36.689Z,55.42
2022-12-01T00:46:04.022Z,52.13
2022-12-01T00:48:30.838Z,52.00
2022-12-01T00:50:57.649Z,50.17
2022-12-01T00:53:24.781Z,50.35
2022-12-01T00:55:54.046Z,47.70
2022-12-01T00:58:21.466Z,47.25
2022-12-01T01:00:48.569Z,46.50
2022-12-01T01:03:15.778Z,47.92
2022-12-01T01:05:43.883Z,40.60
2022-12-01T01:08:14.916Z,41.85
2022-12-01T01:10:43.862Z,41.72
2022-12-01T01:13:11.853Z,44.85
2022-12-01T01:15:39.018Z,43.03
2022-12-01T01:18:06.729Z,47.63
2022-12-01T01:20:33.777Z,40.22
2022-12-01T01:23:00.607Z,41.17
2022-12-01T01:25:27.502Z,51.03
2022-12-01T01:27:54.365Z,48.30
2022-12-01T01:30:21.310Z,51.03
2022-12-01T01:32:48.168Z,46.95
2022-12-01T01:35:15.014Z,52.33
2022-12-01T01:37:41.855Z,53.92
2022-12-01T01:40:09.373Z,48.05
2022-12-01T01:42:36.167Z,47.78
2022-12-01T01:45:03.128Z,54.75
2022-12-01T01:47:40.819Z,57.05
2022-12-01T01:50:12.656Z,52.20
2022-12-01T01:52:47.925Z,54.67
2022-12-01T01:55:15.653Z,55.25
2022-12-01T01:57:43.594Z,61.60
2022-12-01T02:00:13.899Z,51.83
2022-12-01T02:02:45.486Z,51.80
2022-12-01T02:05:19.179Z,52.17
2022-12-01T02:07:47.893Z,56.35
2022-12-01T02:10:22.364Z,51.17
2022-12-01T02:13:13.213Z,54.40
2022-12-01T02:15:53.357Z,57.90
2022-12-01T02:18:31.582Z,56.63
2022-12-01T02:21:10.675Z,53.47
2022-12-01T02:24:08.424Z,59.67
2022-12-01T02:27:07.015Z,59.47
2022-12-01T02:29:36.807Z,48.15
2022-12-01T02:32:17.627Z,57.55
2022-12-01T02:34:59.025Z,52.65
2022-12-01T02:37:59.368Z,55.97
2022-12-01T02:40:56.367Z,58.25
2022-12-01T02:43:56.104Z,66.13
2022-12-01T02:46:25.230Z,57.08
2022-12-01T02:48:55.906Z,58.88
2022-12-01T02:51:32.240Z,68.25
2022-12-01T02:54:01.825Z,70.15
2022-12-01T02:56:28.800Z,57.00
2022-12-01T02:58:55.890Z,60.58
2022-12-01T03:01:42.558Z,62.33
2022-12-01T03:04:52.176Z,58.60
2022-12-01T03:08:03.399Z,66.82
2022-12-01T03:10:54.483Z,60.47
2022-12-01T03:13:44.161Z,59.20
2022-12-01T03:16:38.872Z,58.97
2022-12-01T03:19:12.419Z,62.08
2022-12-01T03:21:52.052Z,56.75
2022-12-01T03:24:22.263Z,60.13
2022-12-01T03:26:56.866Z,53.17
2022-12-01T03:29:32.012Z,60.13
2022-12-01T03:32:04.162Z,69.38
2022-12-01T03:34:42.678Z,62.80
2022-12-01T03:37:21.152Z,57.60
2022-12-01T03:39:50.011Z,53.03
2022-12-01T03:42:28.812Z,58.15
2022-12-01T03:44:59.760Z,61.88
2022-12-01T03:47:32.123Z,58.28
2022-12-01T03:50:00.588Z,54.08
2022-12-01T03:53:07.001Z,57.70
2022-12-01T03:55:39.252Z,51.53
2022-12-01T03:58:24.154Z,64.00
2022-12-01T04:00:57.584Z,53.25
2022-12-01T04:03:25.926Z,57.75
2022-12-01T04:05:52.828Z,57.80
2022-12-01T04:08:19.823Z,60.17
2022-12-01T04:10:46.611Z,58.10
2022-12-01T04:13:22.700Z,55.58
2022-12-01T04:15:50.854Z,54.60
2022-12-01T04:18:18.395Z,63.53
2022-12-01T04:20:49.864Z,58.17
2022-12-01T04:23:35.605Z,55.80
2022-12-01T04:26:04.845Z,55.30
2022-12-01T04:28:31.706Z,54.95
2022-12-01T04:30:58.692Z,55.63
2022-12-01T04:33:25.594Z,57.42
2022-12-01T04:36:00.051Z,55.88
2022-12-01T04:38:30.867Z,52.20
2022-12-01T04:40:58.284Z,50.25
2022-12-01T04:43:25.262Z,55.10
2022-12-01T04:45:52.039Z,49.95
2022-12-01T04:48:18.874Z,53.92
2022-12-01T04:50:45.670Z,49.92
2022-12-01T04:53:12.451Z,56.53
2022-12-01T04:55:39.503Z,52.22
2022-12-01T04:58:06.796Z,51.28
2022-12-01T05:00:34.251Z,54.17
2022-12-01T05:03:01.523Z,47.97
2022-12-01T05:05:28.345Z,54.55
2022-12-01T05:07:55.307Z,54.50
2022-12-01T05:10:22.626Z,53.72
2022-12-01T05:12:49.852Z,47.53
2022-12-01T05:15:16.836Z,50.78
2022-12-01T05:17:43.990Z,49.55
2022-12-01T05:20:39.075Z,47.10
2022-12-01T05:23:06.789Z,46.25
2022-12-01T05:25:35.095Z,46.83
2022-12-01T05:28:01.947Z,42.75
2022-12-01T05:30:29.092Z,48.60
2022-12-01T05:32:56.040Z,48.15
2022-12-01T05:35:22.998Z,49.97
2022-12-01T05:37:49.874Z,49.58
2022-12-01T05:40:16.725Z,47.95
2022-12-01T05:42:43.594Z,46.42
2022-12-01T05:45:10.744Z,49.03
2022-12-01T05:47:37.580Z,51.00
2022-12-01T05:50:05.991Z,50.05
2022-12-01T05:52:36.602Z,50.63
2022-12-01T05:55:05.159Z,48.28
2022-12-01T05:57:33.021Z,53.05
2022-12-01T06:00:00.361Z,48.08
2022-12-01T06:02:27.381Z,51.65
2022-12-01T06:04:54.444Z,51.75
2022-12-01T06:07:23.567Z,51.38
2022-12-01T06:09:50.708Z,55.85
2022-12-01T06:12:17.979Z,41.25
2022-12-01T06:14:45.007Z,50.03
2022-12-01T06:17:12.225Z,42.33
2022-12-01T06:19:39.447Z,50.72
2022-12-01T06:22:06.317Z,50.20
2022-12-01T06:24:33.146Z,47.90
2022-12-01T06:26:59.989Z,48.22
2022-12-01T06:29:26.895Z,45.17
2022-12-01T06:31:53.920Z,47.30
2022-12-01T06:34:20.837Z,44.30
2022-12-01T06:36:47.781Z,49.40
2022-12-01T06:39:16.524Z,53.10
2022-12-01T06:41:43.723Z,44.40
2022-12-01T06:44:11.287Z,48.15
2022-12-01T06:46:38.196Z,47.00
2022-12-01T06:49:05.345Z,43.78
2022-12-01T06:51:34.302Z,35.03
2022-12-01T06:54:05.465Z,42.85
2022-12-01T06:56:32.573Z,41.70
2022-12-01T06:58:59.871Z,45.20
2022-12-01T07:01:27.199Z,45.65
2022-12-01T07:03:54.837Z,52.80
2022-12-01T07:06:21.887Z,47.15
2022-12-01T07:08:48.737Z,50.50
2022-12-01T07:11:16.363Z,45.83
2022-12-01T07:13:47.072Z,50.65
2022-12-01T07:16:13.979Z,46.97
2022-12-01T07:18:41.468Z,50.10
2022-12-01T07:21:11.828Z,50.00
2022-12-01T07:23:38.949Z,53.97
2022-12-01T07:26:09.727Z,54.05
2022-12-01T07:28:36.564Z,51.53
2022-12-01T07:31:06.012Z,49.67
2022-12-01T07:33:33.472Z,51.60
2022-12-01T07:36:00.629Z,53.67
2022-12-01T07:38:33.632Z,55.28
2022-12-01T07:41:11.805Z,47.17
2022-12-01T07:43:39.455Z,39.53
2022-12-01T07:46:10.809Z,44.58
2022-12-01T07:48:39.009Z,45.70
2022-12-01T07:51:11.483Z,47.15
2022-12-01T07:53:39.301Z,44.20
2022-12-01T07:56:08.796Z,50.33
2022-12-01T07:58:36.099Z,43.58
2022-12-01T08:01:18.960Z,42.50
2022-12-01T08:03:45.876Z,44.28
2022-12-01T08:06:12.891Z,40.35
2022-12-01T08:08:41.619Z,41.15
2022-12-01T08:11:22.759Z,47.08
2022-12-01T08:13:50.402Z,44.80
2022-12-01T08:16:20.880Z,50.45
2022-12-01T08:18:47.970Z,41.03
2022-12-01T08:21:18.821Z,46.78
2022-12-01T08:23:45.700Z,40.47
2022-12-01T08:26:17.802Z,39.33
2022-12-01T08:28:45.217Z,43.63
2022-12-01T08:31:15.039Z,37.67
2022-12-01T08:33:42.085Z,43.10
2022-12-01T08:36:09.376Z,42.28
2022-12-01T08:38:36.200Z,48.55
2022-12-01T08:41:08.554Z,39.55
2022-12-01T08:44:00.280Z,40.83
2022-12-01T08:46:31.101Z,36.15
2022-12-01T08:48:58.305Z,35.90
2022-12-01T08:51:26.334Z,39.05
2022-12-01T08:53:54.985Z,39.17
2022-12-01T08:56:25.197Z,39.53
2022-12-01T08:58:52.071Z,39.78
2022-12-01T09:01:19.759Z,39.38
2022-12-01T09:03:47.105Z,40.08
2022-12-01T09:06:16.599Z,36.22
2022-12-01T09:08:44.181Z,41.72
2022-12-01T09:11:19.098Z,41.38
2022-12-01T09:13:51.423Z,37.25
2022-12-01T09:16:21.517Z,33.88
2022-12-01T09:18:49.181Z,31.88
2022-12-01T09:21:18.457Z,34.15
2022-12-01T09:23:45.539Z,35.00
2022-12-01T09:26:13.940Z,35.72
2022-12-01T09:28:41.213Z,30.23
2022-12-01T09:31:10.139Z,33.70
2022-12-01T09:33:37.685Z,36.85
2022-12-01T09:36:06.284Z,33.80
2022-12-01T09:38:35.191Z,31.83
2022-12-01T09:41:11.708Z,34.30
2022-12-01T09:43:47.414Z,28.88
2022-12-01T09:46:20.449Z,29.23
2022-12-01T09:48:49.444Z,30.35
2022-12-01T09:51:19.178Z,26.65
2022-12-01T09:53:48.660Z,38.15
2022-12-01T09:56:31.232Z,25.65
2022-12-01T09:59:00.961Z,29.55
2022-12-01T10:01:49.655Z,24.73
2022-12-01T10:04:45.317Z,32.88
2022-12-01T10:07:24.069Z,31.48
2022-12-01T10:10:01.983Z,30.73
2022-12-01T10:12:32.341Z,28.02
2022-12-01T10:15:28.363Z,27.67
2022-12-01T10:18:14.161Z,27.15
2022-12-01T10:20:51.199Z,28.50
2022-12-01T10:23:37.075Z,34.05
2022-12-01T10:26:31.752Z,31.92
2022-12-01T10:29:12.536Z,30.38
2022-12-01T10:31:45.500Z,30.63
2022-12-01T10:34:26.734Z,36.80
2022-12-01T10:36:53.938Z,34.05
2022-12-01T10:39:36.745Z,32.28
2022-12-01T10:42:27.962Z,29.52
2022-12-01T10:45:01.639Z,33.22
2022-12-01T10:47:28.896Z,30.17
2022-12-01T10:49:56.404Z,31.48
2022-12-01T10:52:35.625Z,31.15
2022-12-01T10:55:04.308Z,32.72
2022-12-01T10:57:31.868Z,30.27
2022-12-01T11:00:08.651Z,33.45
2022-12-01T11:02:36.206Z,31.92
2022-12-01T11:05:06.994Z,32.97
2022-12-01T11:07:46.074Z,30.35
2022-12-01T11:10:31.756Z,33.72
2022-12-01T11:13:17.569Z,30.52
2022-12-01T11:16:33.577Z,28.98
2022-12-01T11:19:20.450Z,30.25
2022-12-01T11:21:53.139Z,35.22
2022-12-01T11:24:30.689Z,31.92
2022-12-01T11:26:59.184Z,40.25
2022-12-01T11:29:36.289Z,37.08
2022-12-01T11:32:30.657Z,33.60
2022-12-01T11:35:03.142Z,28.73
2022-12-01T11:37:39.021Z,33.58
2022-12-01T11:40:23.836Z,35.40
2022-12-01T11:42:53.262Z,32.10
2022-12-01T11:45:41.196Z,30.88
2022-12-01T11:48:25.797Z,29.50
2022-12-01T11:51:06.613Z,36.78
2022-12-01T11:53:36.970Z,34.80
2022-12-01T11:56:23.937Z,32.40
2022-12-01T11:58:58.170Z,29.48
2022-12-01T12:01:56.230Z,33.70
2022-12-01T12:05:00.718Z,34.28
2022-12-01T12:08:01.714Z,37.65
2022-12-01T12:10:34.402Z,35.67
2022-12-01T12:13:16.498Z,33.50
2022-12-01T12:15:58.141Z,35.50
2022-12-01T12:18:24.904Z,35.33
2022-12-01T12:21:45.315Z,29.70
2022-12-01T12:24:20.651Z,34.30
2022-12-01T12:27:15.829Z,33.35
2022-12-01T12:29:54.611Z,33.13
2022-12-01T12:32:45.028Z,35.13
2022-12-01T12:35:26.881Z,34.88
2022-12-01T12:38:31.466Z,35.75
2022-12-01T12:41:29.721Z,33.10
2022-12-01T12:43:59.604Z,32.08
2022-12-01T12:46:41.199Z,38.83
2022-12-01T12:49:32.055Z,34.15
2022-12-01T12:52:08.940Z,37.08
2022-12-01T12:54:50.367Z,34.13
2022-12-01T12:57:24.229Z,36.38
2022-12-01T12:59:58.319Z,36.60
2022-12-01T13:02:39.851Z,32.55
2022-12-01T13:05:36.284Z,34.92
2022-12-01T13:08:10.422Z,33.67
2022-12-01T13:10:46.092Z,38.33
2022-12-01T13:13:31.681Z,36.58
2022-12-01T13:16:00.987Z,33.55
2022-12-01T13:18:45.549Z,33.20
2022-12-01T13:21:17.459Z,37.22
2022-12-01T13:23:46.462Z,40.08
2022-12-01T13:26:13.885Z,32.13
2022-12-01T13:28:43.779Z,34.25
2022-12-01T13:31:14.078Z,35.33
2022-12-01T13:34:05.795Z,41.55
2022-12-01T13:36:49.718Z,31.40
2022-12-01T13:39:38.133Z,33.95
2022-12-01T13:42:09.153Z,31.35
2022-12-01T13:44:53.019Z,32.42
2022-12-01T13:47:19.858Z,29.40
2022-12-01T13:49:51.528Z,31.98
2022-12-01T13:52:21.288Z,34.63
2022-12-01T13:55:09.295Z,33.10
2022-12-01T13:57:57.320Z,35.45
2022-12-01T14:00:34.972Z,32.53
2022-12-01T14:03:20.004Z,31.67
2022-12-01T14:05:53.239Z,30.40
2022-12-01T14:08:24.689Z,35.22
2022-12-01T14:11:02.972Z,34.30
2022-12-01T14:13:32.492Z,33.25
2022-12-01T14:16:02.297Z,32.78
2022-12-01T14:18:34.136Z,29.55
2022-12-01T14:21:04.569Z,35.15
2022-12-01T14:23:36.587Z,30.88
2022-12-01T14:26:14.412Z,31.73
2022-12-01T14:29:02.411Z,35.35
2022-12-01T14:31:35.350Z,29.30
2022-12-01T14:34:18.948Z,30.67
2022-12-01T14:36:57.837Z,30.05
2022-12-01T14:39:29.287Z,29.08
2022-12-01T14:41:59.885Z,29.83
2022-12-01T14:44:29.764Z,28.42
2022-12-01T14:47:11.652Z,32.03
2022-12-01T14:49:53.584Z,34.08
2022-12-01T14:52:29.286Z,37.75
2022-12-01T14:55:02.916Z,34.47
2022-12-01T14:57:34.493Z,33.75
2022-12-01T15:00:13.609Z,32.72
2022-12-01T15:02:58.483Z,40.47
2022-12-01T15:05:30.760Z,28.38
2022-12-01T15:08:18.583Z,30.30
2022-12-01T15:11:05.288Z,32.25
2022-12-01T15:13:51.473Z,34.05
2022-12-01T15:16:21.279Z,31.13
2022-12-01T15:18:48.475Z,38.25
2022-12-01T15:21:30.395Z,33.20
2022-12-01T15:24:03.950Z,29.30
2022-12-01T15:26:45.223Z,35.22
2022-12-01T15:29:30.338Z,35.25
2022-12-01T15:31:59.816Z,30.50
2022-12-01T15:34:40.251Z,26.10
2022-12-01T15:37:16.889Z,29.50
2022-12-01T15:39:47.040Z,37.17
2022-12-01T15:42:33.486Z,30.48
2022-12-01T15:45:12.354Z,32.08
2022-12-01T15:47:43.496Z,29.10
2022-12-01T15:50:29.774Z,28.92
2022-12-01T15:52:57.917Z,26.77
2022-12-01T15:55:36.540Z,25.50
2022-12-01T15:58:08.186Z,29.92
2022-12-01T16:00:35.831Z,28.52
2022-12-01T16:03:03.307Z,33.45
2022-12-01T16:05:35.539Z,28.35
2022-12-01T16:08:20.204Z,28.17
2022-12-01T16:11:14.244Z,32.88
2022-12-01T16:13:47.152Z,27.25
2022-12-01T16:16:43.245Z,28.95
2022-12-01T16:19:10.066Z,29.70
2022-12-01T16:21:51.718Z,25.95
2022-12-01T16:24:23.367Z,25.90
2022-12-01T16:26:57.579Z,32.92
2022-12-01T16:29:25.933Z,31.08
2022-12-01T16:34:47.703Z,34.47
2022-12-01T16:37:15.778Z,29.08
2022-12-01T16:39:43.064Z,28.17
2022-12-01T16:42:18.320Z,30.65
2022-12-01T16:44:46.551Z,29.67
2022-12-01T16:47:24.471Z,34.63
2022-12-01T16:49:52.351Z,30.42
2022-12-01T16:52:43.740Z,37.60
2022-12-01T16:55:37.941Z,31.85
2022-12-01T16:58:05.275Z,33.35
2022-12-01T17:00:32.248Z,33.88
2022-12-01T17:02:59.487Z,29.27
2022-12-01T17:05:26.375Z,30.33
2022-12-01T17:07:53.917Z,29.85
2022-12-01T17:10:21.210Z,35.83
2022-12-01T17:12:48.032Z,32.20
2022-12-01T17:15:15.291Z,40.72
2022-12-01T17:17:42.211Z,30.42
2022-12-01T17:20:10.402Z,33.08
2022-12-01T17:22:37.460Z,31.35
2022-12-01T17:25:05.264Z,39.00
2022-12-01T17:27:32.386Z,31.90
2022-12-01T17:30:00.182Z,33.65
2022-12-01T17:32:27.575Z,29.40
2022-12-01T17:34:54.720Z,33.53
2022-12-01T17:37:22.109Z,30.77
2022-12-01T17:39:50.349Z,32.28
2022-12-01T17:42:17.478Z,28.48
2022-12-01T17:44:44.608Z,27.70
2022-12-01T17:47:12.287Z,33.40
2022-12-01T17:49:39.159Z,31.77
2022-12-01T17:52:07.077Z,32.45
2022-12-01T17:54:34.273Z,34.13
2022-12-01T17:57:01.066Z,27.05
2022-12-01T17:59:27.974Z,33.22
2022-12-01T18:01:54.864Z,30.02
2022-12-01T18:04:21.686Z,32.58
2022-12-01T18:06:53.838Z,30.00
2022-12-01T18:09:21.871Z,28.95
2022-12-01T18:11:49.205Z,31.63
2022-12-01T18:14:18.730Z,34.33
2022-12-01T18:16:45.864Z,30.10
2022-12-01T18:19:12.928Z,31.55
2022-12-01T18:21:40.695Z,32.33
2022-12-01T18:24:11.313Z,31.67
2022-12-01T18:26:40.188Z,37.90
2022-12-01T18:29:15.808Z,31.83
2022-12-01T18:31:43.323Z,29.30
2022-12-01T18:34:11.172Z,29.73
2022-12-01T18:36:40.233Z,32.80
2022-12-01T18:39:08.889Z,27.95
2022-12-01T18:41:36.231Z,27.40
2022-12-01T18:44:03.605Z,28.98
2022-12-01T18:46:30.699Z,34.10
2022-12-01T18:49:02.992Z,26.90
2022-12-01T18:51:31.580Z,30.92
2022-12-01T18:54:00.278Z,34.08
2022-12-01T18:56:27.726Z,32.97
2022-12-01T18:58:56.426Z,37.15
2022-12-01T19:01:33.670Z,35.10
2022-12-01T19:04:01.954Z,34.40
2022-12-01T19:06:29.855Z,30.98
2022-12-01T19:09:00.142Z,30.63
2022-12-01T19:11:27.551Z,28.40
2022-12-01T19:13:55.934Z,30.63
2022-12-01T19:16:23.099Z,31.95
2022-12-01T19:18:50.099Z,32.97
2022-12-01T19:21:18.844Z,32.08
2022-12-01T19:23:46.635Z,27.77
2022-12-01T19:26:19.232Z,40.80
2022-12-01T19:28:46.821Z,37.72
2022-12-01T19:31:24.904Z,31.92
2022-12-01T19:33:53.644Z,32.13
2022-12-01T19:36:23.799Z,29.35
2022-12-01T19:38:50.808Z,33.83
2022-12-01T19:41:24.144Z,35.53
2022-12-01T19:43:52.181Z,30.42
2022-12-01T19:46:21.756Z,35.15
2022-12-01T19:48:55.104Z,30.38
2022-12-01T19:51:25.573Z,32.67
2022-12-01T19:53:53.354Z,33.90
2022-12-01T19:56:21.002Z,33.28
2022-12-01T19:58:47.867Z,33.83
2022-12-01T20:01:16.525Z,31.20
2022-12-01T20:03:46.627Z,34.35
2022-12-01T20:06:17.064Z,38.05
2022-12-01T20:08:44.141Z,35.15
2022-12-01T20:11:11.824Z,34.58
2022-12-01T20:13:41.622Z,30.92
2022-12-01T20:16:11.534Z,33.50
2022-12-01T20:18:39.709Z,33.30
2022-12-01T20:21:10.760Z,34.40
2022-12-01T20:23:37.747Z,36.47
2022-12-01T20:26:07.154Z,36.75
2022-12-01T20:28:34.989Z,33.90
2022-12-01T20:31:02.323Z,33.35
2022-12-01T20:33:29.544Z,38.60
2022-12-01T20:35:56.381Z,30.90
2022-12-01T20:38:27.407Z,32.20
2022-12-01T20:40:54.705Z,35.60
2022-12-01T20:43:21.557Z,32.60
2022-12-01T20:45:48.646Z,34.20
2022-12-01T20:48:16.272Z,31.17
2022-12-01T20:50:43.073Z,32.60
2022-12-01T20:53:10.357Z,36.55
2022-12-01T20:55:37.599Z,31.90
2022-12-01T20:58:05.690Z,34.35
2022-12-01T21:00:32.474Z,33.92
2022-12-01T21:02:59.285Z,32.05
2022-12-01T21:05:26.748Z,35.90
2022-12-01T21:07:54.729Z,35.38
2022-12-01T21:10:21.726Z,35.97
2022-12-01T21:13:21.508Z,35.15
2022-12-01T21:16:01.639Z,36.92
2022-12-01T21:18:47.729Z,37.80
2022-12-01T21:21:23.734Z,39.45
2022-12-01T21:24:14.568Z,40.17
2022-12-01T21:26:46.867Z,35.90
2022-12-01T21:29:21.678Z,38.10
2022-12-01T21:31:51.751Z,35.95
2022-12-01T21:34:24.282Z,39.75
2022-12-01T21:36:54.222Z,42.22
2022-12-01T21:39:23.131Z,36.08
2022-12-01T21:41:52.775Z,37.50
2022-12-01T21:44:21.841Z,38.45
2022-12-01T21:46:55.917Z,43.75
2022-12-01T21:49:38.549Z,39.33
2022-12-01T21:52:22.646Z,37.05
2022-12-01T21:54:50.120Z,36.53
2022-12-01T21:57:29.770Z,36.90
2022-12-01T22:00:08.621Z,31.55
2022-12-01T22:02:49.837Z,37.13
2022-12-01T22:05:33.847Z,36.40
2022-12-01T22:08:20.886Z,34.70
2022-12-01T22:11:01.828Z,38.58
2022-12-01T22:13:46.910Z,35.47
2022-12-01T22:16:15.772Z,34.53
2022-12-01T22:18:52.644Z,37.55
2022-12-01T22:21:22.221Z,36.88
2022-12-01T22:23:57.103Z,35.42
2022-12-01T22:26:25.110Z,38.72
2022-12-01T22:28:58.107Z,37.08
2022-12-01T22:31:25.239Z,37.08
2022-12-01T22:34:01.477Z,36.05
2022-12-01T22:36:31.765Z,39.05
2022-12-01T22:38:58.749Z,36.13
2022-12-01T22:41:28.754Z,33.25
2022-12-01T22:44:00.709Z,36.22
2022-12-01T22:46:34.837Z,42.63
2022-12-01T22:49:15.703Z,40.22
2022-12-01T22:51:51.568Z,44.17
2022-12-01T22:54:22.408Z,39.83
2022-12-01T22:56:54.057Z,39.53
2022-12-01T22:59:20.812Z,37.53
2022-12-01T23:01:53.668Z,40.20
2022-12-01T23:04:22.738Z,38.75
2022-12-01T23:06:57.021Z,45.05
2022-12-01T23:09:29.007Z,34.17
2022-12-01T23:12:04.591Z,42.00
2022-12-01T23:14:33.529Z,37.05
2022-12-01T23:17:13.114Z,38.35
2022-12-01T23:19:39.969Z,37.33
2022-12-01T23:22:06.758Z,42.15
2022-12-01T23:24:34.235Z,35.70
2022-12-01T23:27:01.205Z,36.47
2022-12-01T23:29:29.244Z,34.72
2022-12-01T23:31:56.129Z,41.63
2022-12-01T23:34:22.978Z,39.10
2022-12-01T23:36:50.716Z,38.65
2022-12-01T23:39:23.183Z,43.00
2022-12-01T23:41:51.381Z,34.30
2022-12-01T23:44:22.877Z,40.03
2022-12-01T23:46:52.724Z,35.55
2022-12-01T23:49:24.213Z,39.42
2022-12-01T23:51:53.733Z,39.47
2022-12-01T23:54:27.690Z,40.95
2022-12-01T23:57:21.697Z,41.17
2022-12-01T23:59:55.714Z,34.33
